sensor_id;sensor_type;location;lat;lon;timestamp;P1;durP1;ratioP1;P2;durP2;ratioP2
72584;SDS011;73873;40.084;32.908;2024-03-23T00:55:44;12.80;;;5.70;;
72584;SDS011;73873;40.084;32.908;2024-03-23T00:58:10;14.38;;;6.45;;
72584;SDS011;73873;40.084;32.908;2024-03-23T01:00:35;13.83;;;5.97;;
72584;SDS011;73873;40.084;32.908;2024-03-23T01:03:01;14.60;;;6.22;;
72584;SDS011;73873;40.084;32.908;2024-03-23T01:05:27;14.00;;;5.85;;
72584;SDS011;73873;40.084;32.908;2024-03-23T01:07:53;13.37;;;5.43;;
72584;SDS011;73873;40.084;32.908;2024-03-23T01:10:18;9.88;;;4.40;;
72584;SDS011;73873;40.084;32.908;2024-03-23T01:12:44;11.27;;;4.57;;
72584;SDS011;73873;40.084;32.908;2024-03-23T01:15:10;6.95;;;3.20;;
72584;SDS011;73873;40.084;32.908;2024-03-23T01:17:36;6.07;;;2.38;;
72584;SDS011;73873;40.084;32.908;2024-03-23T01:20:02;4.87;;;1.70;;
72584;SDS011;73873;40.084;32.908;2024-03-23T01:22:28;5.45;;;1.70;;
72584;SDS011;73873;40.084;32.908;2024-03-23T01:24:56;5.68;;;1.88;;
72584;SDS011;73873;40.084;32.908;2024-03-23T01:27:22;6.03;;;1.73;;
72584;SDS011;73873;40.084;32.908;2024-03-23T01:29:48;4.70;;;1.60;;
72584;SDS011;73873;40.084;32.908;2024-03-23T01:32:13;4.10;;;1.57;;
72584;SDS011;73873;40.084;32.908;2024-03-23T01:34:39;4.32;;;1.63;;
72584;SDS011;73873;40.084;32.908;2024-03-23T01:37:05;4.03;;;1.40;;
72584;SDS011;73873;40.084;32.908;2024-03-23T01:39:31;5.30;;;1.67;;
72584;SDS011;73873;40.084;32.908;2024-03-23T01:41:57;4.20;;;1.38;;
72584;SDS011;73873;40.084;32.908;2024-03-23T01:44:23;4.30;;;1.57;;
72584;SDS011;73873;40.084;32.908;2024-03-23T01:46:48;4.03;;;1.38;;
72584;SDS011;73873;40.084;32.908;2024-03-23T01:49:14;4.10;;;1.50;;
72584;SDS011;73873;40.084;32.908;2024-03-23T01:51:41;3.73;;;1.40;;
72584;SDS011;73873;40.084;32.908;2024-03-23T01:54:07;4.00;;;1.27;;
72584;SDS011;73873;40.084;32.908;2024-03-23T01:56:34;3.70;;;1.30;;
72584;SDS011;73873;40.084;32.908;2024-03-23T01:59:00;3.55;;;1.17;;
72584;SDS011;73873;40.084;32.908;2024-03-23T02:01:29;3.67;;;1.20;;
72584;SDS011;73873;40.084;32.908;2024-03-23T02:03:55;3.40;;;1.07;;
72584;SDS011;73873;40.084;32.908;2024-03-23T02:06:21;4.05;;;1.20;;
72584;SDS011;73873;40.084;32.908;2024-03-23T02:08:47;3.40;;;1.13;;
72584;SDS011;73873;40.084;32.908;2024-03-23T02:11:13;3.38;;;1.08;;
72584;SDS011;73873;40.084;32.908;2024-03-23T02:13:39;3.63;;;1.02;;
72584;SDS011;73873;40.084;32.908;2024-03-23T02:16:05;3.83;;;1.10;;
72584;SDS011;73873;40.084;32.908;2024-03-23T02:18:32;3.40;;;1.17;;
72584;SDS011;73873;40.084;32.908;2024-03-23T02:20:58;3.65;;;1.10;;
72584;SDS011;73873;40.084;32.908;2024-03-23T02:23:24;3.63;;;1.33;;
72584;SDS011;73873;40.084;32.908;2024-03-23T02:25:50;3.23;;;1.03;;
72584;SDS011;73873;40.084;32.908;2024-03-23T02:28:16;3.33;;;1.20;;
72584;SDS011;73873;40.084;32.908;2024-03-23T02:30:42;3.70;;;1.10;;
72584;SDS011;73873;40.084;32.908;2024-03-23T02:33:07;3.10;;;0.98;;
72584;SDS011;73873;40.084;32.908;2024-03-23T02:35:33;3.67;;;1.00;;
72584;SDS011;73873;40.084;32.908;2024-03-23T02:37:59;3.83;;;1.30;;
72584;SDS011;73873;40.084;32.908;2024-03-23T02:40:25;4.72;;;1.40;;
72584;SDS011;73873;40.084;32.908;2024-03-23T02:42:51;3.20;;;1.10;;
72584;SDS011;73873;40.084;32.908;2024-03-23T02:45:18;3.85;;;1.20;;
72584;SDS011;73873;40.084;32.908;2024-03-23T02:47:43;3.90;;;1.20;;
72584;SDS011;73873;40.084;32.908;2024-03-23T02:50:09;3.78;;;1.08;;
72584;SDS011;73873;40.084;32.908;2024-03-23T02:52:35;3.47;;;1.00;;
72584;SDS011;73873;40.084;32.908;2024-03-23T02:55:02;3.77;;;1.13;;
72584;SDS011;73873;40.084;32.908;2024-03-23T02:57:28;3.92;;;1.25;;
72584;SDS011;73873;40.084;32.908;2024-03-23T02:59:55;4.35;;;1.35;;
72584;SDS011;73873;40.084;32.908;2024-03-23T03:02:21;3.85;;;1.20;;
72584;SDS011;73873;40.084;32.908;2024-03-23T03:04:47;3.30;;;1.27;;
72584;SDS011;73873;40.084;32.908;2024-03-23T03:07:13;4.20;;;1.27;;
72584;SDS011;73873;40.084;32.908;2024-03-23T03:09:39;3.53;;;1.20;;
72584;SDS011;73873;40.084;32.908;2024-03-23T03:12:07;3.35;;;1.20;;
72584;SDS011;73873;40.084;32.908;2024-03-23T03:14:34;3.55;;;1.10;;
72584;SDS011;73873;40.084;32.908;2024-03-23T03:17:00;3.15;;;1.08;;
72584;SDS011;73873;40.084;32.908;2024-03-23T03:19:26;4.57;;;1.30;;
72584;SDS011;73873;40.084;32.908;2024-03-23T03:21:52;3.17;;;1.20;;
72584;SDS011;73873;40.084;32.908;2024-03-23T03:24:18;3.55;;;1.20;;
72584;SDS011;73873;40.084;32.908;2024-03-23T03:26:44;3.60;;;1.30;;
72584;SDS011;73873;40.084;32.908;2024-03-23T03:29:09;3.90;;;1.40;;
72584;SDS011;73873;40.084;32.908;2024-03-23T03:31:35;4.05;;;1.30;;
72584;SDS011;73873;40.084;32.908;2024-03-23T03:34:01;3.75;;;1.30;;
72584;SDS011;73873;40.084;32.908;2024-03-23T03:36:27;4.30;;;1.50;;
72584;SDS011;73873;40.084;32.908;2024-03-23T03:38:53;3.58;;;1.50;;
72584;SDS011;73873;40.084;32.908;2024-03-23T03:41:19;4.70;;;1.77;;
72584;SDS011;73873;40.084;32.908;2024-03-23T03:43:44;4.05;;;1.40;;
72584;SDS011;73873;40.084;32.908;2024-03-23T03:46:10;4.15;;;1.20;;
72584;SDS011;73873;40.084;32.908;2024-03-23T03:48:36;3.97;;;1.30;;
72584;SDS011;73873;40.084;32.908;2024-03-23T03:51:03;3.40;;;1.20;;
72584;SDS011;73873;40.084;32.908;2024-03-23T03:53:29;4.22;;;1.27;;
72584;SDS011;73873;40.084;32.908;2024-03-23T03:55:56;4.28;;;1.50;;
72584;SDS011;73873;40.084;32.908;2024-03-23T03:58:22;3.70;;;1.20;;
72584;SDS011;73873;40.084;32.908;2024-03-23T04:00:48;4.20;;;1.35;;
72584;SDS011;73873;40.084;32.908;2024-03-23T04:03:14;4.70;;;1.38;;
72584;SDS011;73873;40.084;32.908;2024-03-23T04:05:40;4.70;;;1.48;;
72584;SDS011;73873;40.084;32.908;2024-03-23T04:08:07;4.20;;;1.37;;
72584;SDS011;73873;40.084;32.908;2024-03-23T04:10:33;4.63;;;1.50;;
72584;SDS011;73873;40.084;32.908;2024-03-23T04:13:12;4.65;;;1.70;;
72584;SDS011;73873;40.084;32.908;2024-03-23T04:15:38;4.20;;;1.60;;
72584;SDS011;73873;40.084;32.908;2024-03-23T04:18:04;4.30;;;1.50;;
72584;SDS011;73873;40.084;32.908;2024-03-23T04:20:30;4.20;;;1.30;;
72584;SDS011;73873;40.084;32.908;2024-03-23T04:22:56;4.32;;;1.30;;
72584;SDS011;73873;40.084;32.908;2024-03-23T04:25:22;3.70;;;1.37;;
72584;SDS011;73873;40.084;32.908;2024-03-23T04:27:47;4.78;;;1.60;;
72584;SDS011;73873;40.084;32.908;2024-03-23T04:30:13;4.27;;;1.30;;
72584;SDS011;73873;40.084;32.908;2024-03-23T04:32:39;4.10;;;1.30;;
72584;SDS011;73873;40.084;32.908;2024-03-23T04:35:05;5.60;;;1.40;;
72584;SDS011;73873;40.084;32.908;2024-03-23T04:37:33;4.27;;;1.47;;
72584;SDS011;73873;40.084;32.908;2024-03-23T04:40:00;4.00;;;1.40;;
72584;SDS011;73873;40.084;32.908;2024-03-23T04:42:26;4.93;;;1.58;;
72584;SDS011;73873;40.084;32.908;2024-03-23T04:44:52;4.17;;;1.53;;
72584;SDS011;73873;40.084;32.908;2024-03-23T04:47:17;5.95;;;1.70;;
72584;SDS011;73873;40.084;32.908;2024-03-23T04:49:43;4.23;;;1.50;;
72584;SDS011;73873;40.084;32.908;2024-03-23T04:52:09;4.13;;;1.53;;
72584;SDS011;73873;40.084;32.908;2024-03-23T04:54:35;4.28;;;1.60;;
72584;SDS011;73873;40.084;32.908;2024-03-23T04:57:00;5.83;;;1.80;;
72584;SDS011;73873;40.084;32.908;2024-03-23T04:59:26;4.60;;;1.65;;
72584;SDS011;73873;40.084;32.908;2024-03-23T05:01:52;4.57;;;1.83;;
72584;SDS011;73873;40.084;32.908;2024-03-23T05:04:18;4.80;;;1.80;;
72584;SDS011;73873;40.084;32.908;2024-03-23T05:06:43;5.50;;;1.83;;
72584;SDS011;73873;40.084;32.908;2024-03-23T05:09:09;6.00;;;1.63;;
72584;SDS011;73873;40.084;32.908;2024-03-23T05:11:35;5.30;;;1.70;;
72584;SDS011;73873;40.084;32.908;2024-03-23T05:14:01;4.45;;;1.70;;
72584;SDS011;73873;40.084;32.908;2024-03-23T05:16:26;5.63;;;1.93;;
72584;SDS011;73873;40.084;32.908;2024-03-23T05:18:52;5.13;;;1.88;;
72584;SDS011;73873;40.084;32.908;2024-03-23T05:21:18;5.50;;;2.05;;
72584;SDS011;73873;40.084;32.908;2024-03-23T05:23:44;5.10;;;1.90;;
72584;SDS011;73873;40.084;32.908;2024-03-23T05:26:10;5.15;;;2.20;;
72584;SDS011;73873;40.084;32.908;2024-03-23T05:28:36;6.50;;;2.00;;
72584;SDS011;73873;40.084;32.908;2024-03-23T05:31:02;6.40;;;2.50;;
72584;SDS011;73873;40.084;32.908;2024-03-23T05:33:28;5.25;;;2.00;;
72584;SDS011;73873;40.084;32.908;2024-03-23T05:35:57;6.27;;;2.10;;
72584;SDS011;73873;40.084;32.908;2024-03-23T05:38:24;6.75;;;2.20;;
72584;SDS011;73873;40.084;32.908;2024-03-23T05:40:56;5.80;;;2.42;;
72584;SDS011;73873;40.084;32.908;2024-03-23T05:43:23;5.10;;;2.30;;
72584;SDS011;73873;40.084;32.908;2024-03-23T05:45:53;5.50;;;2.30;;
72584;SDS011;73873;40.084;32.908;2024-03-23T05:48:22;6.33;;;2.47;;
72584;SDS011;73873;40.084;32.908;2024-03-23T05:50:48;5.55;;;2.20;;
72584;SDS011;73873;40.084;32.908;2024-03-23T05:53:17;5.72;;;2.33;;
72584;SDS011;73873;40.084;32.908;2024-03-23T05:55:44;4.20;;;1.90;;
72584;SDS011;73873;40.084;32.908;2024-03-23T05:58:10;7.67;;;2.63;;
72584;SDS011;73873;40.084;32.908;2024-03-23T06:00:36;5.57;;;2.08;;
72584;SDS011;73873;40.084;32.908;2024-03-23T06:03:01;5.55;;;2.17;;
72584;SDS011;73873;40.084;32.908;2024-03-23T06:05:27;6.20;;;2.20;;
72584;SDS011;73873;40.084;32.908;2024-03-23T06:07:54;6.50;;;2.13;;
72584;SDS011;73873;40.084;32.908;2024-03-23T06:10:19;5.18;;;2.20;;
72584;SDS011;73873;40.084;32.908;2024-03-23T06:12:48;6.30;;;2.20;;
72584;SDS011;73873;40.084;32.908;2024-03-23T06:15:14;5.88;;;2.38;;
72584;SDS011;73873;40.084;32.908;2024-03-23T06:17:40;6.47;;;2.38;;
72584;SDS011;73873;40.084;32.908;2024-03-23T06:20:06;6.50;;;2.40;;
72584;SDS011;73873;40.084;32.908;2024-03-23T06:22:32;7.22;;;2.58;;
72584;SDS011;73873;40.084;32.908;2024-03-23T06:24:58;5.57;;;2.40;;
72584;SDS011;73873;40.084;32.908;2024-03-23T06:27:24;5.90;;;2.73;;
72584;SDS011;73873;40.084;32.908;2024-03-23T06:29:49;5.15;;;2.17;;
72584;SDS011;73873;40.084;32.908;2024-03-23T06:32:15;6.00;;;2.40;;
72584;SDS011;73873;40.084;32.908;2024-03-23T06:34:41;5.97;;;2.20;;
72584;SDS011;73873;40.084;32.908;2024-03-23T06:37:07;5.47;;;2.27;;
72584;SDS011;73873;40.084;32.908;2024-03-23T06:39:33;5.70;;;2.10;;
72584;SDS011;73873;40.084;32.908;2024-03-23T06:41:59;4.93;;;2.07;;
72584;SDS011;73873;40.084;32.908;2024-03-23T06:44:24;5.60;;;2.15;;
72584;SDS011;73873;40.084;32.908;2024-03-23T06:46:50;5.00;;;2.00;;
72584;SDS011;73873;40.084;32.908;2024-03-23T06:49:16;5.97;;;2.30;;
72584;SDS011;73873;40.084;32.908;2024-03-23T06:51:42;5.03;;;2.13;;
72584;SDS011;73873;40.084;32.908;2024-03-23T06:54:07;6.07;;;2.30;;
72584;SDS011;73873;40.084;32.908;2024-03-23T06:56:33;6.25;;;2.42;;
72584;SDS011;73873;40.084;32.908;2024-03-23T06:58:59;6.10;;;2.37;;
72584;SDS011;73873;40.084;32.908;2024-03-23T07:01:25;5.20;;;2.20;;
72584;SDS011;73873;40.084;32.908;2024-03-23T07:03:50;5.63;;;2.30;;
72584;SDS011;73873;40.084;32.908;2024-03-23T07:06:16;5.83;;;2.20;;
72584;SDS011;73873;40.084;32.908;2024-03-23T07:08:42;5.50;;;2.25;;
72584;SDS011;73873;40.084;32.908;2024-03-23T07:11:08;6.13;;;2.60;;
72584;SDS011;73873;40.084;32.908;2024-03-23T07:13:34;5.13;;;2.15;;
72584;SDS011;73873;40.084;32.908;2024-03-23T07:15:59;5.30;;;2.00;;
72584;SDS011;73873;40.084;32.908;2024-03-23T07:18:26;4.32;;;1.95;;
72584;SDS011;73873;40.084;32.908;2024-03-23T07:20:52;5.72;;;2.35;;
72584;SDS011;73873;40.084;32.908;2024-03-23T07:23:22;4.97;;;1.90;;
72584;SDS011;73873;40.084;32.908;2024-03-23T07:25:58;5.33;;;1.90;;
72584;SDS011;73873;40.084;32.908;2024-03-23T07:28:31;5.35;;;2.17;;
72584;SDS011;73873;40.084;32.908;2024-03-23T07:31:03;6.13;;;2.20;;
72584;SDS011;73873;40.084;32.908;2024-03-23T07:33:29;6.28;;;2.60;;
72584;SDS011;73873;40.084;32.908;2024-03-23T07:35:55;6.20;;;2.10;;
72584;SDS011;73873;40.084;32.908;2024-03-23T07:38:21;6.30;;;2.40;;
72584;SDS011;73873;40.084;32.908;2024-03-23T07:40:47;8.70;;;3.25;;
72584;SDS011;73873;40.084;32.908;2024-03-23T07:43:13;10.07;;;3.13;;
72584;SDS011;73873;40.084;32.908;2024-03-23T07:45:38;6.35;;;2.90;;
72584;SDS011;73873;40.084;32.908;2024-03-23T07:48:05;6.32;;;2.70;;
72584;SDS011;73873;40.084;32.908;2024-03-23T07:50:30;7.70;;;2.70;;
72584;SDS011;73873;40.084;32.908;2024-03-23T07:52:56;6.55;;;2.60;;
72584;SDS011;73873;40.084;32.908;2024-03-23T07:55:22;6.23;;;2.40;;
72584;SDS011;73873;40.084;32.908;2024-03-23T07:57:48;5.80;;;2.25;;
72584;SDS011;73873;40.084;32.908;2024-03-23T08:00:16;5.40;;;2.40;;
72584;SDS011;73873;40.084;32.908;2024-03-23T08:02:42;4.65;;;2.15;;
72584;SDS011;73873;40.084;32.908;2024-03-23T08:05:08;5.63;;;2.40;;
72584;SDS011;73873;40.084;32.908;2024-03-23T08:07:34;5.57;;;2.50;;
72584;SDS011;73873;40.084;32.908;2024-03-23T08:09:59;5.43;;;2.27;;
72584;SDS011;73873;40.084;32.908;2024-03-23T08:12:25;6.50;;;2.50;;
72584;SDS011;73873;40.084;32.908;2024-03-23T08:14:51;6.10;;;2.47;;
72584;SDS011;73873;40.084;32.908;2024-03-23T08:17:16;6.18;;;2.30;;
72584;SDS011;73873;40.084;32.908;2024-03-23T08:19:42;5.87;;;2.20;;
72584;SDS011;73873;40.084;32.908;2024-03-23T08:22:08;6.35;;;2.40;;
72584;SDS011;73873;40.084;32.908;2024-03-23T08:24:34;6.87;;;2.60;;
72584;SDS011;73873;40.084;32.908;2024-03-23T08:27:00;6.30;;;2.83;;
72584;SDS011;73873;40.084;32.908;2024-03-23T08:29:26;5.53;;;2.50;;
72584;SDS011;73873;40.084;32.908;2024-03-23T08:31:52;8.13;;;2.90;;
72584;SDS011;73873;40.084;32.908;2024-03-23T08:34:17;6.05;;;2.70;;
72584;SDS011;73873;40.084;32.908;2024-03-23T08:36:43;7.87;;;3.43;;
72584;SDS011;73873;40.084;32.908;2024-03-23T08:39:09;9.55;;;3.78;;
72584;SDS011;73873;40.084;32.908;2024-03-23T08:41:35;7.37;;;3.30;;
72584;SDS011;73873;40.084;32.908;2024-03-23T08:44:00;10.63;;;4.72;;
72584;SDS011;73873;40.084;32.908;2024-03-23T08:46:26;10.37;;;3.90;;
72584;SDS011;73873;40.084;32.908;2024-03-23T08:48:52;9.82;;;4.32;;
72584;SDS011;73873;40.084;32.908;2024-03-23T08:51:18;11.13;;;4.63;;
72584;SDS011;73873;40.084;32.908;2024-03-23T08:53:44;8.23;;;3.80;;
72584;SDS011;73873;40.084;32.908;2024-03-23T08:56:10;11.18;;;4.38;;
72584;SDS011;73873;40.084;32.908;2024-03-23T08:58:37;8.18;;;3.42;;
72584;SDS011;73873;40.084;32.908;2024-03-23T09:01:04;9.75;;;3.65;;
72584;SDS011;73873;40.084;32.908;2024-03-23T09:03:31;8.90;;;3.77;;
72584;SDS011;73873;40.084;32.908;2024-03-23T09:05:57;8.73;;;4.10;;
72584;SDS011;73873;40.084;32.908;2024-03-23T09:08:23;8.77;;;3.42;;
72584;SDS011;73873;40.084;32.908;2024-03-23T09:10:49;9.60;;;3.67;;
72584;SDS011;73873;40.084;32.908;2024-03-23T09:13:14;8.27;;;3.20;;
72584;SDS011;73873;40.084;32.908;2024-03-23T09:15:47;6.73;;;2.77;;
72584;SDS011;73873;40.084;32.908;2024-03-23T09:18:16;6.60;;;2.90;;
72584;SDS011;73873;40.084;32.908;2024-03-23T09:20:42;7.30;;;2.95;;
72584;SDS011;73873;40.084;32.908;2024-03-23T09:23:07;7.18;;;2.47;;
72584;SDS011;73873;40.084;32.908;2024-03-23T09:25:37;6.90;;;2.60;;
72584;SDS011;73873;40.084;32.908;2024-03-23T09:28:03;6.28;;;2.90;;
72584;SDS011;73873;40.084;32.908;2024-03-23T09:30:30;6.80;;;3.20;;
72584;SDS011;73873;40.084;32.908;2024-03-23T09:32:56;7.07;;;3.03;;
72584;SDS011;73873;40.084;32.908;2024-03-23T09:35:23;5.78;;;2.70;;
72584;SDS011;73873;40.084;32.908;2024-03-23T09:37:48;5.73;;;2.50;;
72584;SDS011;73873;40.084;32.908;2024-03-23T09:40:14;6.13;;;2.60;;
72584;SDS011;73873;40.084;32.908;2024-03-23T09:42:41;7.30;;;2.83;;
72584;SDS011;73873;40.084;32.908;2024-03-23T09:45:10;6.72;;;3.05;;
72584;SDS011;73873;40.084;32.908;2024-03-23T09:47:51;6.73;;;3.00;;
72584;SDS011;73873;40.084;32.908;2024-03-23T09:50:17;6.65;;;2.78;;
72584;SDS011;73873;40.084;32.908;2024-03-23T09:52:47;8.90;;;3.17;;
72584;SDS011;73873;40.084;32.908;2024-03-23T09:55:13;6.75;;;2.70;;
72584;SDS011;73873;40.084;32.908;2024-03-23T09:57:40;6.77;;;3.03;;
72584;SDS011;73873;40.084;32.908;2024-03-23T10:00:06;7.13;;;2.90;;
72584;SDS011;73873;40.084;32.908;2024-03-23T10:02:32;7.53;;;2.97;;
72584;SDS011;73873;40.084;32.908;2024-03-23T10:05:02;6.38;;;2.35;;
72584;SDS011;73873;40.084;32.908;2024-03-23T10:07:28;6.63;;;2.60;;
72584;SDS011;73873;40.084;32.908;2024-03-23T10:09:53;7.93;;;2.90;;
72584;SDS011;73873;40.084;32.908;2024-03-23T10:12:19;7.85;;;3.00;;
72584;SDS011;73873;40.084;32.908;2024-03-23T10:14:45;6.45;;;2.50;;
72584;SDS011;73873;40.084;32.908;2024-03-23T10:17:15;6.70;;;2.80;;
72584;SDS011;73873;40.084;32.908;2024-03-23T10:19:43;6.63;;;2.70;;
72584;SDS011;73873;40.084;32.908;2024-03-23T10:22:13;7.35;;;2.65;;
72584;SDS011;73873;40.084;32.908;2024-03-23T10:24:41;6.38;;;2.75;;
72584;SDS011;73873;40.084;32.908;2024-03-23T10:27:07;6.30;;;2.45;;
72584;SDS011;73873;40.084;32.908;2024-03-23T10:29:33;5.27;;;2.23;;
72584;SDS011;73873;40.084;32.908;2024-03-23T10:32:08;6.03;;;2.45;;
72584;SDS011;73873;40.084;32.908;2024-03-23T10:34:37;5.22;;;2.28;;
72584;SDS011;73873;40.084;32.908;2024-03-23T10:37:03;5.63;;;2.10;;
72584;SDS011;73873;40.084;32.908;2024-03-23T10:39:33;5.10;;;2.00;;
72584;SDS011;73873;40.084;32.908;2024-03-23T10:42:04;4.70;;;2.00;;
72584;SDS011;73873;40.084;32.908;2024-03-23T10:44:31;5.50;;;2.17;;
72584;SDS011;73873;40.084;32.908;2024-03-23T10:46:58;6.13;;;2.50;;
72584;SDS011;73873;40.084;32.908;2024-03-23T10:49:25;5.67;;;2.30;;
72584;SDS011;73873;40.084;32.908;2024-03-23T10:51:52;4.72;;;2.00;;
72584;SDS011;73873;40.084;32.908;2024-03-23T10:54:18;5.45;;;2.20;;
72584;SDS011;73873;40.084;32.908;2024-03-23T10:56:45;6.00;;;1.90;;
72584;SDS011;73873;40.084;32.908;2024-03-23T10:59:12;6.25;;;2.35;;
72584;SDS011;73873;40.084;32.908;2024-03-23T11:01:55;5.73;;;2.50;;
72584;SDS011;73873;40.084;32.908;2024-03-23T11:04:39;6.72;;;2.40;;
72584;SDS011;73873;40.084;32.908;2024-03-23T11:09:50;5.93;;;2.35;;
72584;SDS011;73873;40.084;32.908;2024-03-23T11:14:45;4.83;;;1.97;;
72584;SDS011;73873;40.084;32.908;2024-03-23T11:17:11;4.38;;;1.63;;
72584;SDS011;73873;40.084;32.908;2024-03-23T11:19:43;3.75;;;1.58;;
72584;SDS011;73873;40.084;32.908;2024-03-23T11:22:08;4.57;;;1.70;;
72584;SDS011;73873;40.084;32.908;2024-03-23T11:24:34;5.10;;;2.00;;
72584;SDS011;73873;40.084;32.908;2024-03-23T11:27:00;4.50;;;1.77;;
72584;SDS011;73873;40.084;32.908;2024-03-23T11:29:26;4.27;;;1.57;;
72584;SDS011;73873;40.084;32.908;2024-03-23T11:31:52;4.15;;;1.90;;
72584;SDS011;73873;40.084;32.908;2024-03-23T11:34:19;6.43;;;1.40;;
72584;SDS011;73873;40.084;32.908;2024-03-23T11:36:45;5.13;;;1.50;;
72584;SDS011;73873;40.084;32.908;2024-03-23T11:39:16;4.40;;;1.60;;
72584;SDS011;73873;40.084;32.908;2024-03-23T11:41:50;4.13;;;1.60;;
72584;SDS011;73873;40.084;32.908;2024-03-23T11:46:42;7.30;;;1.70;;
72584;SDS011;73873;40.084;32.908;2024-03-23T11:49:19;4.20;;;1.50;;
72584;SDS011;73873;40.084;32.908;2024-03-23T11:51:55;4.10;;;1.50;;
72584;SDS011;73873;40.084;32.908;2024-03-23T11:54:23;4.55;;;1.60;;
72584;SDS011;73873;40.084;32.908;2024-03-23T11:56:59;4.00;;;1.40;;
72584;SDS011;73873;40.084;32.908;2024-03-23T11:59:30;4.75;;;1.33;;
72584;SDS011;73873;40.084;32.908;2024-03-23T12:02:11;4.28;;;1.60;;
72584;SDS011;73873;40.084;32.908;2024-03-23T12:04:38;4.90;;;1.65;;
72584;SDS011;73873;40.084;32.908;2024-03-23T12:07:17;5.07;;;1.40;;
72584;SDS011;73873;40.084;32.908;2024-03-23T12:09:44;8.93;;;1.63;;
72584;SDS011;73873;40.084;32.908;2024-03-23T12:12:11;4.30;;;1.45;;
72584;SDS011;73873;40.084;32.908;2024-03-23T12:14:40;4.13;;;1.60;;
72584;SDS011;73873;40.084;32.908;2024-03-23T12:17:10;4.23;;;1.80;;
72584;SDS011;73873;40.084;32.908;2024-03-23T12:19:40;5.15;;;1.75;;
72584;SDS011;73873;40.084;32.908;2024-03-23T12:22:07;3.97;;;1.50;;
72584;SDS011;73873;40.084;32.908;2024-03-23T12:24:33;4.30;;;1.35;;
72584;SDS011;73873;40.084;32.908;2024-03-23T12:27:00;14.30;;;9.07;;
72584;SDS011;73873;40.084;32.908;2024-03-23T12:29:30;9.40;;;5.90;;
72584;SDS011;73873;40.084;32.908;2024-03-23T12:32:00;5.22;;;2.00;;
72584;SDS011;73873;40.084;32.908;2024-03-23T12:34:27;3.85;;;1.48;;
72584;SDS011;73873;40.084;32.908;2024-03-23T12:36:54;4.35;;;1.70;;
72584;SDS011;73873;40.084;32.908;2024-03-23T12:39:20;4.13;;;1.70;;
72584;SDS011;73873;40.084;32.908;2024-03-23T12:41:45;4.27;;;1.80;;
72584;SDS011;73873;40.084;32.908;2024-03-23T12:44:11;5.53;;;1.85;;
72584;SDS011;73873;40.084;32.908;2024-03-23T12:46:37;4.47;;;1.60;;
72584;SDS011;73873;40.084;32.908;2024-03-23T12:49:03;3.87;;;1.40;;
72584;SDS011;73873;40.084;32.908;2024-03-23T12:51:29;5.15;;;1.75;;
72584;SDS011;73873;40.084;32.908;2024-03-23T12:53:55;4.53;;;1.60;;
72584;SDS011;73873;40.084;32.908;2024-03-23T12:56:21;6.83;;;3.20;;
72584;SDS011;73873;40.084;32.908;2024-03-23T12:58:46;11.98;;;5.00;;
72584;SDS011;73873;40.084;32.908;2024-03-23T13:01:12;5.90;;;2.00;;
72584;SDS011;73873;40.084;32.908;2024-03-23T13:03:38;4.95;;;2.03;;
72584;SDS011;73873;40.084;32.908;2024-03-23T13:06:04;4.17;;;1.90;;
72584;SDS011;73873;40.084;32.908;2024-03-23T13:08:29;4.50;;;1.58;;
72584;SDS011;73873;40.084;32.908;2024-03-23T13:10:55;5.50;;;2.17;;
72584;SDS011;73873;40.084;32.908;2024-03-23T13:13:21;5.83;;;2.30;;
72584;SDS011;73873;40.084;32.908;2024-03-23T13:15:50;8.82;;;2.70;;
72584;SDS011;73873;40.084;32.908;2024-03-23T13:18:16;6.05;;;2.40;;
72584;SDS011;73873;40.084;32.908;2024-03-23T13:20:42;5.70;;;2.30;;
72584;SDS011;73873;40.084;32.908;2024-03-23T13:23:08;5.07;;;2.08;;
72584;SDS011;73873;40.084;32.908;2024-03-23T13:25:33;5.23;;;2.13;;
72584;SDS011;73873;40.084;32.908;2024-03-23T13:27:59;5.13;;;2.35;;
72584;SDS011;73873;40.084;32.908;2024-03-23T13:30:25;6.28;;;2.50;;
72584;SDS011;73873;40.084;32.908;2024-03-23T13:32:51;5.67;;;2.33;;
72584;SDS011;73873;40.084;32.908;2024-03-23T13:35:16;4.60;;;2.10;;
72584;SDS011;73873;40.084;32.908;2024-03-23T13:37:42;5.93;;;2.90;;
72584;SDS011;73873;40.084;32.908;2024-03-23T13:40:08;5.78;;;2.60;;
72584;SDS011;73873;40.084;32.908;2024-03-23T13:42:34;5.27;;;2.27;;
72584;SDS011;73873;40.084;32.908;2024-03-23T13:45:00;5.63;;;2.83;;
72584;SDS011;73873;40.084;32.908;2024-03-23T13:47:26;7.80;;;3.53;;
72584;SDS011;73873;40.084;32.908;2024-03-23T13:49:52;8.25;;;3.75;;
72584;SDS011;73873;40.084;32.908;2024-03-23T13:52:17;7.80;;;3.05;;
72584;SDS011;73873;40.084;32.908;2024-03-23T13:54:43;6.40;;;3.13;;
72584;SDS011;73873;40.084;32.908;2024-03-23T13:57:09;7.78;;;3.28;;
72584;SDS011;73873;40.084;32.908;2024-03-23T13:59:35;6.47;;;2.77;;
72584;SDS011;73873;40.084;32.908;2024-03-23T14:02:00;6.43;;;2.83;;
72584;SDS011;73873;40.084;32.908;2024-03-23T14:04:26;6.97;;;2.77;;
72584;SDS011;73873;40.084;32.908;2024-03-23T14:06:52;6.80;;;2.70;;
72584;SDS011;73873;40.084;32.908;2024-03-23T14:09:18;5.78;;;2.60;;
72584;SDS011;73873;40.084;32.908;2024-03-23T14:11:44;5.73;;;2.70;;
72584;SDS011;73873;40.084;32.908;2024-03-23T14:14:10;6.65;;;2.97;;
72584;SDS011;73873;40.084;32.908;2024-03-23T14:16:37;6.00;;;2.40;;
72584;SDS011;73873;40.084;32.908;2024-03-23T14:19:04;5.40;;;2.55;;
72584;SDS011;73873;40.084;32.908;2024-03-23T14:21:30;4.93;;;2.45;;
72584;SDS011;73873;40.084;32.908;2024-03-23T14:23:57;5.80;;;3.03;;
72584;SDS011;73873;40.084;32.908;2024-03-23T14:26:23;5.68;;;2.50;;
72584;SDS011;73873;40.084;32.908;2024-03-23T14:28:49;5.68;;;2.80;;
72584;SDS011;73873;40.084;32.908;2024-03-23T14:31:15;6.05;;;3.08;;
72584;SDS011;73873;40.084;32.908;2024-03-23T14:33:40;6.27;;;2.90;;
72584;SDS011;73873;40.084;32.908;2024-03-23T14:36:07;7.28;;;3.15;;
72584;SDS011;73873;40.084;32.908;2024-03-23T14:38:33;7.60;;;3.38;;
72584;SDS011;73873;40.084;32.908;2024-03-23T14:40:59;8.03;;;3.63;;
72584;SDS011;73873;40.084;32.908;2024-03-23T14:43:25;7.63;;;3.63;;
72584;SDS011;73873;40.084;32.908;2024-03-23T14:48:33;7.07;;;3.40;;
72584;SDS011;73873;40.084;32.908;2024-03-23T14:50:59;8.83;;;3.40;;
72584;SDS011;73873;40.084;32.908;2024-03-23T14:53:29;6.10;;;3.20;;
72584;SDS011;73873;40.084;32.908;2024-03-23T14:55:55;6.97;;;2.95;;
72584;SDS011;73873;40.084;32.908;2024-03-23T14:58:21;6.47;;;3.00;;
72584;SDS011;73873;40.084;32.908;2024-03-23T15:00:47;7.00;;;3.10;;
72584;SDS011;73873;40.084;32.908;2024-03-23T15:03:13;5.70;;;2.80;;
72584;SDS011;73873;40.084;32.908;2024-03-23T15:05:39;9.05;;;3.15;;
72584;SDS011;73873;40.084;32.908;2024-03-23T15:08:05;7.07;;;3.17;;
72584;SDS011;73873;40.084;32.908;2024-03-23T15:10:35;5.82;;;2.63;;
72584;SDS011;73873;40.084;32.908;2024-03-23T15:13:01;5.80;;;2.30;;
72584;SDS011;73873;40.084;32.908;2024-03-23T15:15:26;6.30;;;2.57;;
72584;SDS011;73873;40.084;32.908;2024-03-23T15:17:52;5.75;;;2.80;;
72584;SDS011;73873;40.084;32.908;2024-03-23T15:20:18;6.27;;;2.70;;
72584;SDS011;73873;40.084;32.908;2024-03-23T15:22:43;6.93;;;2.90;;
72584;SDS011;73873;40.084;32.908;2024-03-23T15:25:09;6.17;;;2.90;;
72584;SDS011;73873;40.084;32.908;2024-03-23T15:27:35;5.75;;;2.42;;
72584;SDS011;73873;40.084;32.908;2024-03-23T15:30:01;7.27;;;3.60;;
72584;SDS011;73873;40.084;32.908;2024-03-23T15:32:26;6.40;;;2.70;;
72584;SDS011;73873;40.084;32.908;2024-03-23T15:34:52;7.32;;;3.15;;